createdAt,value
2023-01-01T00:02:09.831Z,4.50
2023-01-01T00:04:40.006Z,4.50
2023-01-01T00:07:11.685Z,4.50
2023-01-01T00:09:58.955Z,4.60
2023-01-01T00:12:29.051Z,4.60
2023-01-01T00:14:59.180Z,4.60
2023-01-01T00:17:29.763Z,4.50
2023-01-01T00:20:00.100Z,4.60
2023-01-01T00:25:22.013Z,4.50
2023-01-01T00:27:52.460Z,4.50
2023-01-01T00:30:22.624Z,4.50
2023-01-01T00:32:54.572Z,4.50
2023-01-01T00:35:26.351Z,4.50
2023-01-01T00:37:58.492Z,4.50
2023-01-01T00:40:28.621Z,4.60
2023-01-01T00:42:58.835Z,4.60
2023-01-01T00:45:29.009Z,4.60
2023-01-01T00:47:59.274Z,4.60
2023-01-01T00:50:29.878Z,4.60
2023-01-01T00:53:01.576Z,4.60
2023-01-01T00:55:31.997Z,4.60
2023-01-01T00:58:02.044Z,4.60
2023-01-01T01:00:32.305Z,4.70
2023-01-01T01:03:05.639Z,4.70
2023-01-01T01:05:37.996Z,4.70
2023-01-01T01:08:09.844Z,4.70
2023-01-01T01:10:39.974Z,4.80
2023-01-01T01:13:10.253Z,4.80
2023-01-01T01:15:41.612Z,4.70
2023-01-01T01:18:11.849Z,4.70
2023-01-01T01:20:42.126Z,4.70
2023-01-01T01:23:13.832Z,4.70
2023-01-01T01:25:44.128Z,4.80
2023-01-01T01:28:14.336Z,4.80
2023-01-01T01:30:44.600Z,4.80
2023-01-01T01:33:14.745Z,4.80
2023-01-01T01:35:44.898Z,4.70
2023-01-01T01:38:16.625Z,4.70
2023-01-01T01:40:46.862Z,4.70
2023-01-01T01:43:25.616Z,4.70
2023-01-01T01:45:58.950Z,4.70
2023-01-01T01:48:29.093Z,4.70
2023-01-01T01:50:59.937Z,4.70
2023-01-01T01:53:35.220Z,4.70
2023-01-01T01:56:13.203Z,4.70
2023-01-01T01:58:43.716Z,4.70
2023-01-01T02:01:13.885Z,4.70
2023-01-01T02:03:47.569Z,4.70
2023-01-01T02:06:17.980Z,4.70
2023-01-01T02:08:51.374Z,4.70
2023-01-01T02:11:23.116Z,4.70
2023-01-01T02:13:54.086Z,4.70
2023-01-01T02:16:29.872Z,4.60
2023-01-01T02:19:05.173Z,4.60
2023-01-01T02:21:40.892Z,4.60
2023-01-01T02:24:35.432Z,4.60
2023-01-01T02:27:10.050Z,4.60
2023-01-01T02:29:47.821Z,4.60
2023-01-01T02:32:21.480Z,4.60
2023-01-01T02:34:56.334Z,4.60
2023-01-01T02:37:30.787Z,4.50
2023-01-01T02:40:02.165Z,4.50
2023-01-01T02:42:33.167Z,4.50
2023-01-01T02:45:05.628Z,4.50
2023-01-01T02:47:35.795Z,4.50
2023-01-01T02:50:11.213Z,4.50
2023-01-01T02:53:08.707Z,4.50
2023-01-01T02:55:50.207Z,4.50
2023-01-01T02:58:44.047Z,4.50
2023-01-01T03:01:22.243Z,4.40
2023-01-01T03:04:03.495Z,4.40
2023-01-01T03:06:41.910Z,4.50
2023-01-01T03:09:22.622Z,4.40
2023-01-01T03:12:00.115Z,4.40
2023-01-01T03:14:38.260Z,4.40
2023-01-01T03:17:13.732Z,4.40
2023-01-01T03:19:45.823Z,4.30
2023-01-01T03:22:17.489Z,4.30
2023-01-01T03:24:50.678Z,4.30
2023-01-01T03:27:24.698Z,4.30
2023-01-01T03:29:58.037Z,4.20
2023-01-01T03:32:46.971Z,4.20
2023-01-01T03:35:20.281Z,4.20
2023-01-01T03:37:55.505Z,4.20
2023-01-01T03:40:26.864Z,4.20
2023-01-01T03:42:59.333Z,4.20
2023-01-01T03:45:35.664Z,4.10
2023-01-01T03:48:08.072Z,4.10
2023-01-01T03:50:48.570Z,4.10
2023-01-01T03:53:28.753Z,4.00
2023-01-01T03:56:07.746Z,4.10
2023-01-01T03:58:44.284Z,4.00
2023-01-01T04:01:18.738Z,4.00
2023-01-01T04:03:51.573Z,4.00
2023-01-01T04:06:22.399Z,4.00
2023-01-01T04:08:55.979Z,4.00
2023-01-01T04:11:47.226Z,4.00
2023-01-01T04:14:28.162Z,4.10
2023-01-01T04:16:59.114Z,4.10
2023-01-01T04:19:30.809Z,4.20
2023-01-01T04:22:01.231Z,4.20
2023-01-01T04:24:31.524Z,4.20
2023-01-01T04:27:01.761Z,4.20
2023-01-01T04:29:31.837Z,4.20
2023-01-01T04:32:01.989Z,4.20
2023-01-01T04:34:33.657Z,4.20
2023-01-01T04:37:08.239Z,4.30
2023-01-01T04:39:41.379Z,4.40
2023-01-01T04:42:11.526Z,4.40
2023-01-01T04:44:41.845Z,4.40
2023-01-01T04:47:11.998Z,4.40
2023-01-01T04:49:44.044Z,4.30
2023-01-01T04:52:14.667Z,4.30
2023-01-01T04:54:44.774Z,4.20
2023-01-01T04:57:15.149Z,4.20
2023-01-01T04:59:45.292Z,4.20
2023-01-01T05:02:16.099Z,4.20
2023-01-01T05:04:47.899Z,4.20
2023-01-01T05:07:18.058Z,4.20
2023-01-01T05:09:48.157Z,4.20
2023-01-01T05:12:18.252Z,4.20
2023-01-01T05:14:48.500Z,4.20
2023-01-01T05:17:18.905Z,4.10
2023-01-01T05:19:50.966Z,4.10
2023-01-01T05:22:21.141Z,4.10
2023-01-01T05:24:51.252Z,4.10
2023-01-01T05:27:21.342Z,4.00
2023-01-01T05:29:51.489Z,4.00
2023-01-01T05:32:21.686Z,4.10
2023-01-01T05:34:54.250Z,4.10
2023-01-01T05:37:24.488Z,4.10
2023-01-01T05:39:54.536Z,4.10
2023-01-01T05:42:24.645Z,4.10
2023-01-01T05:44:54.708Z,4.10
2023-01-01T05:47:28.198Z,4.00
2023-01-01T05:52:32.245Z,4.00
2023-01-01T05:55:02.697Z,4.00
2023-01-01T05:57:32.957Z,4.00
2023-01-01T06:00:03.015Z,4.00
2023-01-01T06:02:33.930Z,4.00
2023-01-01T06:05:05.721Z,4.00
2023-01-01T06:07:35.843Z,4.00
2023-01-01T06:10:06.841Z,3.90
2023-01-01T06:12:37.451Z,3.80
2023-01-01T06:15:08.782Z,3.80
2023-01-01T06:17:38.959Z,3.70
2023-01-01T06:20:11.905Z,3.60
2023-01-01T06:22:42.014Z,3.50
2023-01-01T06:25:13.471Z,3.50
2023-01-01T06:27:43.601Z,3.30
2023-01-01T06:30:14.145Z,3.40
2023-01-01T06:32:44.244Z,3.40
2023-01-01T06:35:15.995Z,3.60
2023-01-01T06:37:46.055Z,3.60
2023-01-01T06:40:16.516Z,3.60
2023-01-01T06:42:46.651Z,3.60
2023-01-01T06:45:16.777Z,3.70
2023-01-01T06:47:47.088Z,3.70
2023-01-01T06:50:19.115Z,3.60
2023-01-01T06:52:50.432Z,3.60
2023-01-01T06:55:20.506Z,3.60
2023-01-01T06:57:54.062Z,3.70
2023-01-01T07:00:24.461Z,3.60
2023-01-01T07:02:54.853Z,3.70
2023-01-01T07:05:26.638Z,3.70
2023-01-01T07:07:56.818Z,3.70
2023-01-01T07:10:27.181Z,3.70
2023-01-01T07:12:57.306Z,3.80
2023-01-01T07:15:27.586Z,3.80
2023-01-01T07:17:57.714Z,3.80
2023-01-01T07:20:29.473Z,3.70
2023-01-01T07:22:59.673Z,3.70
2023-01-01T07:25:29.749Z,3.80
2023-01-01T07:28:00.002Z,3.70
2023-01-01T07:30:30.127Z,3.70
2023-01-01T07:33:00.286Z,3.70
2023-01-01T07:35:32.026Z,3.70
2023-01-01T07:38:02.134Z,3.70
2023-01-01T07:40:32.210Z,3.70
2023-01-01T07:43:02.437Z,3.70
2023-01-01T07:45:32.613Z,3.70
2023-01-01T07:48:03.446Z,3.70
2023-01-01T07:50:37.928Z,3.70
2023-01-01T07:53:08.627Z,3.80
2023-01-01T07:55:38.902Z,3.80
2023-01-01T07:58:09.009Z,3.70
2023-01-01T08:00:39.440Z,3.80
2023-01-01T08:03:09.748Z,3.80
2023-01-01T08:05:42.756Z,3.80
2023-01-01T08:08:13.514Z,3.80
2023-01-01T08:10:43.650Z,3.80
2023-01-01T08:13:13.749Z,3.90
2023-01-01T08:15:43.843Z,3.80
2023-01-01T08:18:14.149Z,3.80
2023-01-01T08:20:45.858Z,3.80
2023-01-01T08:23:15.980Z,3.70
2023-01-01T08:25:46.067Z,3.80
2023-01-01T08:28:16.391Z,3.70
2023-01-01T08:30:46.810Z,3.70
2023-01-01T08:33:17.011Z,3.70
2023-01-01T08:35:53.897Z,3.70
2023-01-01T08:38:24.615Z,3.70
2023-01-01T08:40:54.914Z,3.70
2023-01-01T08:43:25.014Z,3.80
2023-01-01T08:45:55.061Z,3.90
2023-01-01T08:48:30.504Z,3.80
2023-01-01T08:51:03.737Z,3.80
2023-01-01T08:53:35.385Z,3.80
2023-01-01T08:56:08.654Z,3.70
2023-01-01T08:58:40.382Z,3.70
2023-01-01T09:01:11.347Z,3.80
2023-01-01T09:03:41.457Z,3.80
2023-01-01T09:06:13.244Z,3.80
2023-01-01T09:08:43.671Z,3.80
2023-01-01T09:11:25.556Z,3.80
2023-01-01T09:13:56.534Z,3.80
2023-01-01T09:16:26.819Z,3.80
2023-01-01T09:18:57.480Z,3.80
2023-01-01T09:21:29.125Z,3.80
2023-01-01T09:23:59.401Z,3.80
2023-01-01T09:26:29.460Z,3.80
2023-01-01T09:29:00.203Z,3.70
2023-01-01T09:31:30.626Z,3.70
2023-01-01T09:34:00.814Z,3.70
2023-01-01T09:36:34.164Z,3.70
2023-01-01T09:39:04.758Z,3.70
2023-01-01T09:41:45.916Z,3.70
2023-01-01T09:44:28.662Z,3.80
2023-01-01T09:47:03.483Z,3.70
2023-01-01T09:49:40.399Z,3.70
2023-01-01T09:52:15.420Z,3.70
2023-01-01T09:54:52.177Z,3.70
2023-01-01T09:57:23.400Z,3.70
2023-01-01T09:59:53.838Z,3.70
2023-01-01T10:02:39.064Z,3.70
2023-01-01T10:05:21.774Z,3.70
2023-01-01T10:07:58.915Z,3.60
2023-01-01T10:10:39.713Z,3.60
2023-01-01T10:13:21.298Z,3.60
2023-01-01T10:15:57.839Z,3.60
2023-01-01T10:18:34.189Z,3.60
2023-01-01T10:21:11.161Z,3.60
2023-01-01T10:23:47.221Z,3.60
2023-01-01T10:26:20.334Z,3.50
2023-01-01T10:29:02.188Z,3.60
2023-01-01T10:31:36.456Z,3.40
2023-01-01T10:34:17.165Z,3.40
2023-01-01T10:36:47.958Z,3.50
2023-01-01T10:39:20.787Z,3.50
2023-01-01T10:41:51.291Z,3.40
2023-01-01T10:44:28.826Z,3.40
2023-01-01T10:47:00.945Z,3.30
2023-01-01T10:49:31.257Z,3.30
2023-01-01T10:52:01.682Z,3.20
2023-01-01T10:54:38.122Z,3.10
2023-01-01T10:57:17.251Z,3.10
2023-01-01T10:59:54.178Z,3.10
2023-01-01T11:02:26.607Z,3.10
2023-01-01T11:05:21.972Z,3.00
2023-01-01T11:07:52.961Z,3.00
2023-01-01T11:10:26.295Z,3.00
2023-01-01T11:13:05.688Z,2.90
2023-01-01T11:15:40.774Z,2.90
2023-01-01T11:18:16.823Z,2.90
2023-01-01T11:20:53.467Z,2.90
2023-01-01T11:23:32.129Z,2.90
2023-01-01T11:26:07.252Z,2.90
2023-01-01T11:28:38.883Z,2.90
2023-01-01T11:31:14.967Z,2.90
2023-01-01T11:33:50.214Z,2.90
2023-01-01T11:36:27.250Z,2.90
2023-01-01T11:39:10.504Z,2.90
2023-01-01T11:41:47.236Z,2.80
2023-01-01T11:44:28.288Z,2.80
2023-01-01T11:46:58.431Z,2.80
2023-01-01T11:49:31.324Z,2.80
2023-01-01T11:52:01.904Z,2.80
2023-01-01T11:54:36.713Z,2.80
2023-01-01T11:57:16.841Z,2.80
2023-01-01T11:59:51.529Z,2.80
2023-01-01T12:02:32.627Z,2.70
2023-01-01T12:05:12.895Z,2.80
2023-01-01T12:07:45.628Z,2.70
2023-01-01T12:10:23.127Z,2.70
2023-01-01T12:13:00.840Z,2.70
2023-01-01T12:15:38.156Z,2.70
2023-01-01T12:18:15.922Z,2.70
2023-01-01T12:20:51.687Z,2.70
2023-01-01T12:23:22.317Z,2.70
2023-01-01T12:26:03.176Z,2.70
2023-01-01T12:28:43.034Z,2.70
2023-01-01T12:31:19.379Z,2.60
2023-01-01T12:34:10.986Z,2.70
2023-01-01T12:36:47.933Z,2.70
2023-01-01T12:40:00.974Z,2.70
2023-01-01T12:42:41.662Z,2.70
2023-01-01T12:45:31.108Z,2.70
2023-01-01T12:48:06.237Z,2.70
2023-01-01T12:50:46.747Z,2.70
2023-01-01T12:53:31.793Z,2.70
2023-01-01T12:56:11.012Z,2.60
2023-01-01T12:58:46.343Z,2.60
2023-01-01T13:01:29.826Z,2.70
2023-01-01T13:04:05.555Z,2.70
2023-01-01T13:06:41.523Z,2.70
2023-01-01T13:09:18.322Z,2.70
2023-01-01T13:11:51.819Z,2.70
2023-01-01T13:14:22.082Z,2.70
2023-01-01T13:16:56.921Z,2.70
2023-01-01T13:19:33.011Z,2.70
2023-01-01T13:22:24.119Z,2.70
2023-01-01T13:25:07.938Z,2.70
2023-01-01T13:28:06.081Z,2.70
2023-01-01T13:30:55.168Z,2.70
2023-01-01T13:33:30.167Z,2.70
2023-01-01T13:36:34.003Z,2.70
2023-01-01T13:39:04.210Z,2.70
2023-01-01T13:41:45.296Z,2.70
2023-01-01T13:44:21.467Z,2.70
2023-01-01T13:47:13.109Z,2.70
2023-01-01T13:50:05.374Z,2.70
2023-01-01T13:53:06.092Z,2.70
2023-01-01T13:55:48.345Z,2.70
2023-01-01T13:58:42.992Z,2.70
2023-01-01T14:01:50.416Z,2.80
2023-01-01T14:04:33.242Z,2.70
2023-01-01T14:07:40.876Z,2.80
2023-01-01T14:10:21.387Z,2.80
2023-01-01T14:12:52.136Z,2.80
2023-01-01T14:15:28.619Z,2.80
2023-01-01T14:18:01.360Z,2.80
2023-01-01T14:20:36.997Z,2.90
2023-01-01T14:23:13.593Z,2.90
2023-01-01T14:25:46.049Z,2.90
2023-01-01T14:28:21.461Z,2.90
2023-01-01T14:30:52.029Z,2.90
2023-01-01T14:33:27.502Z,3.00
2023-01-01T14:35:59.004Z,3.10
2023-01-01T14:38:32.357Z,3.00
2023-01-01T14:41:16.205Z,3.00
2023-01-01T14:43:48.934Z,3.10
2023-01-01T14:46:21.072Z,3.10
2023-01-01T14:48:54.098Z,3.10
2023-01-01T14:51:26.113Z,3.10
2023-01-01T14:54:00.382Z,3.20
2023-01-01T14:56:32.131Z,3.20
2023-01-01T14:59:09.736Z,3.30
2023-01-01T15:01:40.305Z,3.30
2023-01-01T15:04:21.388Z,3.30
2023-01-01T15:06:57.038Z,3.40
2023-01-01T15:09:29.990Z,3.40
2023-01-01T15:12:02.023Z,3.40
2023-01-01T15:14:34.379Z,3.30
2023-01-01T15:17:05.516Z,3.30
2023-01-01T15:19:37.190Z,3.30
2023-01-01T15:22:13.306Z,3.40
2023-01-01T15:24:47.858Z,3.30
2023-01-01T15:27:27.882Z,3.30
2023-01-01T15:29:58.828Z,3.30
2023-01-01T15:32:31.300Z,3.30
2023-01-01T15:35:02.708Z,3.30
2023-01-01T15:37:36.337Z,3.40
2023-01-01T15:40:36.024Z,3.40
2023-01-01T15:43:17.993Z,3.50
2023-01-01T15:45:55.729Z,3.60
2023-01-01T15:48:34.170Z,3.60
2023-01-01T15:51:14.885Z,3.60
2023-01-01T15:53:58.812Z,3.60
2023-01-01T15:56:32.705Z,3.80
2023-01-01T15:59:09.112Z,3.80
2023-01-01T16:01:42.911Z,3.80
2023-01-01T16:04:27.731Z,3.90
2023-01-01T16:06:59.895Z,3.90
2023-01-01T16:09:30.072Z,4.00
2023-01-01T16:12:01.773Z,4.10
2023-01-01T16:14:31.880Z,4.20
2023-01-01T16:17:02.845Z,4.40
2023-01-01T16:19:34.324Z,4.40
2023-01-01T16:22:04.474Z,4.40
2023-01-01T16:24:39.175Z,4.30
2023-01-01T16:27:11.219Z,4.20
2023-01-01T16:29:43.576Z,4.30
2023-01-01T16:32:19.217Z,4.30
2023-01-01T16:34:51.162Z,4.40
2023-01-01T16:37:23.238Z,4.50
2023-01-01T16:39:53.665Z,4.50
2023-01-01T16:42:25.292Z,4.60
2023-01-01T16:44:55.524Z,4.60
2023-01-01T16:47:25.661Z,4.60
2023-01-01T16:49:55.809Z,4.60
2023-01-01T16:52:31.369Z,4.70
2023-01-01T16:55:03.598Z,4.80
2023-01-01T16:57:36.095Z,4.80
2023-01-01T17:00:07.073Z,4.90
2023-01-01T17:02:37.503Z,5.00
2023-01-01T17:05:08.163Z,5.00
2023-01-01T17:07:38.299Z,5.10
2023-01-01T17:10:09.135Z,5.00
2023-01-01T17:12:40.988Z,5.10
2023-01-01T17:15:11.882Z,4.90
2023-01-01T17:17:42.008Z,4.90
2023-01-01T17:20:12.702Z,5.00
2023-01-01T17:22:42.868Z,5.00
2023-01-01T17:25:13.329Z,4.90
2023-01-01T17:27:46.037Z,4.90
2023-01-01T17:30:17.437Z,4.90
2023-01-01T17:32:47.566Z,4.70
2023-01-01T17:35:17.883Z,4.70
2023-01-01T17:37:48.050Z,4.60
2023-01-01T17:40:18.648Z,4.60
2023-01-01T17:42:50.554Z,4.60
2023-01-01T17:45:20.949Z,4.60
2023-01-01T17:47:51.026Z,4.50
2023-01-01T17:50:21.976Z,4.50
2023-01-01T17:52:54.084Z,4.50
2023-01-01T17:55:24.515Z,4.60
2023-01-01T17:57:57.021Z,4.60
2023-01-01T18:00:27.361Z,4.70
2023-01-01T18:02:57.507Z,4.70
2023-01-01T18:05:28.869Z,4.70
2023-01-01T18:07:59.179Z,4.80
2023-01-01T18:10:29.274Z,4.80
2023-01-01T18:13:00.998Z,4.80
2023-01-01T18:15:31.169Z,4.90
2023-01-01T18:18:01.350Z,4.80
2023-01-01T18:20:31.450Z,4.70
2023-01-01T18:23:01.555Z,4.80
2023-01-01T18:25:32.081Z,4.90
2023-01-01T18:28:04.237Z,4.70
2023-01-01T18:30:34.867Z,4.70
2023-01-01T18:33:04.977Z,4.60
2023-01-01T18:35:35.085Z,4.50
2023-01-01T18:38:05.322Z,4.50
2023-01-01T18:40:39.595Z,4.50
2023-01-01T18:43:17.045Z,4.60
2023-01-01T18:45:47.300Z,4.60
2023-01-01T18:48:20.302Z,4.70
2023-01-01T18:50:50.724Z,4.70
2023-01-01T18:53:24.073Z,4.70
2023-01-01T18:55:56.093Z,4.70
2023-01-01T18:58:28.560Z,4.70
2023-01-01T19:00:59.065Z,4.60
2023-01-01T19:03:31.794Z,4.50
2023-01-01T19:06:03.801Z,4.40
2023-01-01T19:08:34.039Z,4.20
2023-01-01T19:11:08.631Z,4.20
2023-01-01T19:13:42.373Z,4.10
2023-01-01T19:16:25.166Z,4.10
2023-01-01T19:18:58.263Z,4.00
2023-01-01T19:21:28.562Z,4.00
2023-01-01T19:23:59.931Z,3.90
2023-01-01T19:26:34.547Z,3.80
2023-01-01T19:29:15.425Z,3.70
2023-01-01T19:31:45.884Z,3.60
2023-01-01T19:34:16.129Z,3.40
2023-01-01T19:36:46.955Z,3.30
2023-01-01T19:39:18.019Z,3.20
2023-01-01T19:41:48.721Z,3.10
2023-01-01T19:44:25.013Z,3.00
2023-01-01T19:46:57.094Z,3.00
2023-01-01T19:49:27.274Z,2.90
2023-01-01T19:51:57.988Z,2.80
2023-01-01T19:54:28.420Z,2.80
2023-01-01T19:56:58.558Z,2.80
2023-01-01T19:59:33.234Z,2.70
2023-01-01T20:02:43.538Z,2.70
2023-01-01T20:04:54.696Z,2.70
2023-01-01T20:07:24.956Z,2.70
2023-01-01T20:09:55.013Z,2.70
2023-01-01T20:12:25.155Z,2.70
2023-01-01T20:14:56.888Z,2.70
2023-01-01T20:17:27.108Z,2.70
2023-01-01T20:19:57.247Z,2.70
2023-01-01T20:22:27.655Z,2.60
2023-01-01T20:24:57.759Z,2.60
2023-01-01T20:27:28.359Z,2.50
2023-01-01T20:30:00.085Z,2.50
2023-01-01T20:32:30.935Z,2.50
2023-01-01T20:35:01.456Z,2.40
2023-01-01T20:37:39.589Z,2.40
2023-01-01T20:40:12.988Z,2.30
2023-01-01T20:42:44.362Z,2.30
2023-01-01T20:45:16.363Z,2.30
2023-01-01T20:47:46.577Z,2.30
2023-01-01T20:50:17.009Z,2.30
2023-01-01T20:52:48.022Z,2.30
2023-01-01T20:55:18.331Z,2.30
2023-01-01T20:57:48.512Z,2.20
2023-01-01T21:00:20.649Z,2.30
2023-01-01T21:02:50.933Z,2.20
2023-01-01T21:05:21.101Z,2.20
2023-01-01T21:07:51.253Z,2.10
2023-01-01T21:10:21.683Z,2.10
2023-01-01T21:12:52.016Z,2.00
2023-01-01T21:15:24.075Z,2.00
2023-01-01T21:17:54.348Z,2.00
2023-01-01T21:20:24.425Z,2.00
2023-01-01T21:22:55.804Z,2.00
2023-01-01T21:28:19.940Z,2.00
2023-01-01T21:30:54.194Z,2.00
2023-01-01T21:33:29.586Z,2.00
2023-01-01T21:36:00.316Z,2.00
2023-01-01T21:38:32.103Z,2.00
2023-01-01T21:41:04.203Z,2.00
2023-01-01T21:43:42.004Z,2.00
2023-01-01T21:46:35.096Z,2.00
2023-01-01T21:49:14.887Z,1.90
2023-01-01T21:51:51.838Z,1.90
2023-01-01T21:54:34.304Z,1.90
2023-01-01T21:57:15.857Z,1.80
2023-01-01T21:59:47.353Z,1.80
2023-01-01T22:02:34.099Z,1.80
2023-01-01T22:05:20.204Z,1.70
2023-01-01T22:07:58.788Z,1.80
2023-01-01T22:10:34.408Z,1.80
2023-01-01T22:13:04.624Z,1.90
2023-01-01T22:15:42.832Z,1.90
2023-01-01T22:18:32.827Z,2.00
2023-01-01T22:21:03.685Z,1.90
2023-01-01T22:23:45.168Z,1.90
2023-01-01T22:26:21.351Z,1.90
2023-01-01T22:28:59.560Z,1.90
2023-01-01T22:31:33.392Z,1.90
2023-01-01T22:34:07.275Z,1.80
2023-01-01T22:36:38.623Z,1.70
2023-01-01T22:39:17.194Z,1.70
2023-01-01T22:41:47.637Z,1.70
2023-01-01T22:44:18.686Z,1.60
2023-01-01T22:46:48.933Z,1.60
2023-01-01T22:49:24.792Z,1.60
2023-01-01T22:51:56.925Z,1.60
2023-01-01T22:54:27.049Z,1.50
2023-01-01T22:56:57.143Z,1.60
2023-01-01T22:59:27.384Z,1.60
2023-01-01T23:01:57.552Z,1.60
2023-01-01T23:04:29.546Z,1.50
2023-01-01T23:06:59.740Z,1.50
2023-01-01T23:09:29.879Z,1.50
2023-01-01T23:12:00.729Z,1.40
2023-01-01T23:14:47.864Z,1.40
2023-01-01T23:17:18.171Z,1.30
2023-01-01T23:19:55.188Z,1.20
2023-01-01T23:22:27.255Z,1.20
2023-01-01T23:24:58.402Z,1.10
2023-01-01T23:27:29.009Z,1.00
2023-01-01T23:30:00.290Z,1.10
2023-01-01T23:32:31.132Z,1.00
2023-01-01T23:35:03.250Z,1.10
2023-01-01T23:37:33.679Z,1.10
2023-01-01T23:40:04.214Z,1.10
2023-01-01T23:42:34.839Z,1.20
2023-01-01T23:45:05.426Z,1.30
2023-01-01T23:47:36.060Z,1.30
2023-01-01T23:50:09.858Z,1.30
2023-01-01T23:53:04.495Z,1.20
2023-01-01T23:55:43.569Z,1.20
2023-01-01T23:58:21.186Z,1.30
